createdAt,value
2023-04-26T00:01:42.976Z,3.07
2023-04-26T00:04:17.749Z,3.24
2023-04-26T00:06:49.807Z,3.05
2023-04-26T00:09:22.837Z,2.87
2023-04-26T00:11:54.883Z,3.16
2023-04-26T00:14:26.840Z,3.37
2023-04-26T00:16:58.546Z,3.03
2023-04-26T00:19:30.276Z,3.31
2023-04-26T00:22:02.004Z,3.14
2023-04-26T00:24:33.650Z,3.55
2023-04-26T00:27:05.365Z,3.13
2023-04-26T00:29:37.486Z,3.46
2023-04-26T00:32:09.604Z,3.50
2023-04-26T00:34:41.520Z,3.66
2023-04-26T00:37:13.262Z,3.95
2023-04-26T00:39:45.021Z,3.92
2023-04-26T00:42:16.718Z,3.98
2023-04-26T00:44:48.473Z,3.92
2023-04-26T00:47:20.432Z,4.58
2023-04-26T00:49:52.405Z,4.39
2023-04-26T00:52:25.538Z,4.93
2023-04-26T00:54:57.954Z,5.16
2023-04-26T00:57:29.835Z,5.15
2023-04-26T01:00:02.197Z,4.51
2023-04-26T01:02:34.656Z,4.56
2023-04-26T01:05:06.898Z,4.45
2023-04-26T01:07:38.992Z,4.68
2023-04-26T01:10:11.190Z,5.04
2023-04-26T01:12:42.974Z,5.05
2023-04-26T01:15:14.773Z,4.74
2023-04-26T01:17:47.006Z,5.11
2023-04-26T01:20:19.203Z,4.82
2023-04-26T01:22:50.958Z,4.33
2023-04-26T01:25:22.882Z,4.29
2023-04-26T01:27:54.716Z,4.37
2023-04-26T01:30:30.531Z,4.05
2023-04-26T01:33:02.789Z,4.30
2023-04-26T01:35:34.812Z,4.34
2023-04-26T01:38:08.056Z,4.36
2023-04-26T01:40:41.386Z,4.10
2023-04-26T01:43:13.816Z,4.22
2023-04-26T01:45:48.866Z,4.13
2023-04-26T01:48:35.915Z,3.93
2023-04-26T01:51:08.128Z,3.80
2023-04-26T01:53:42.254Z,3.79
2023-04-26T01:56:14.369Z,3.87
2023-04-26T01:58:46.970Z,3.92
2023-04-26T02:01:19.524Z,3.79
2023-04-26T02:03:52.461Z,3.45
2023-04-26T02:06:25.303Z,3.83
2023-04-26T02:08:57.292Z,3.72
2023-04-26T02:11:30.136Z,3.82
2023-04-26T02:14:03.585Z,3.73
2023-04-26T02:16:35.951Z,3.49
2023-04-26T02:19:09.793Z,3.30
2023-04-26T02:21:56.956Z,3.40
2023-04-26T02:24:30.309Z,3.62
2023-04-26T02:27:06.216Z,3.22
2023-04-26T02:29:44.394Z,3.56
2023-04-26T02:32:18.521Z,3.61
2023-04-26T02:34:50.158Z,3.23
2023-04-26T02:37:22.091Z,3.51
2023-04-26T02:39:53.887Z,3.36
2023-04-26T02:42:26.316Z,3.49
2023-04-26T02:44:58.108Z,3.46
2023-04-26T02:47:29.891Z,3.34
2023-04-26T02:50:01.715Z,3.52
2023-04-26T02:52:36.490Z,3.57
2023-04-26T02:55:09.397Z,3.32
2023-04-26T02:57:41.259Z,3.72
2023-04-26T03:00:13.448Z,3.55
2023-04-26T03:02:45.329Z,3.43
2023-04-26T03:05:17.177Z,3.61
2023-04-26T03:07:48.924Z,3.66
2023-04-26T03:10:20.949Z,3.52
2023-04-26T03:12:52.861Z,3.51
2023-04-26T03:15:25.049Z,3.48
2023-04-26T03:17:57.075Z,3.30
2023-04-26T03:20:28.898Z,3.43
2023-04-26T03:23:00.677Z,3.53
2023-04-26T03:25:33.492Z,3.75
2023-04-26T03:28:05.392Z,3.61
2023-04-26T03:30:38.820Z,3.45
2023-04-26T03:33:10.981Z,3.57
2023-04-26T03:35:43.922Z,3.68
2023-04-26T03:38:15.851Z,3.41
2023-04-26T03:40:47.581Z,3.62
2023-04-26T03:43:19.309Z,3.68
2023-04-26T03:45:51.670Z,3.67
2023-04-26T03:48:23.726Z,3.75
2023-04-26T03:50:55.617Z,3.59
2023-04-26T03:53:27.418Z,3.52
2023-04-26T03:56:00.341Z,3.46
2023-04-26T03:58:33.639Z,3.63
2023-04-26T04:01:05.686Z,3.85
2023-04-26T04:03:40.739Z,3.73
2023-04-26T04:06:13.333Z,3.88
2023-04-26T04:11:17.710Z,4.00
2023-04-26T04:14:09.302Z,4.16
2023-04-26T04:17:00.911Z,4.88
2023-04-26T04:19:33.636Z,4.53
2023-04-26T04:22:15.556Z,5.00
2023-04-26T04:24:47.826Z,4.89
2023-04-26T04:27:20.437Z,5.21
2023-04-26T04:29:53.520Z,4.98
2023-04-26T04:32:25.751Z,4.37
2023-04-26T04:34:58.130Z,4.71
2023-04-26T04:37:30.161Z,5.05
2023-04-26T04:40:04.412Z,4.92
2023-04-26T04:42:39.057Z,5.96
2023-04-26T04:45:13.623Z,5.53
2023-04-26T04:47:45.690Z,5.56
2023-04-26T04:50:18.268Z,5.51
2023-04-26T04:52:50.925Z,5.34
2023-04-26T04:55:23.849Z,5.27
2023-04-26T04:57:56.975Z,5.49
2023-04-26T05:00:29.852Z,5.12
2023-04-26T05:03:17.966Z,4.32
2023-04-26T05:05:50.196Z,4.30
2023-04-26T05:08:22.033Z,4.03
2023-04-26T05:10:54.496Z,4.25
2023-04-26T05:13:26.178Z,4.46
2023-04-26T05:15:59.140Z,3.93
2023-04-26T05:18:30.799Z,4.24
2023-04-26T05:21:02.578Z,3.88
2023-04-26T05:23:34.969Z,4.00
2023-04-26T05:26:07.967Z,4.02
2023-04-26T05:29:03.041Z,4.07
2023-04-26T05:31:57.804Z,3.84
2023-04-26T05:34:58.693Z,3.77
2023-04-26T05:37:30.656Z,3.70
2023-04-26T05:40:02.906Z,3.64
2023-04-26T05:42:34.626Z,3.67
2023-04-26T05:45:06.990Z,3.58
2023-04-26T05:47:39.366Z,3.87
2023-04-26T05:50:11.250Z,3.96
2023-04-26T05:52:43.061Z,3.84
2023-04-26T05:55:15.137Z,3.51
2023-04-26T05:57:47.848Z,3.41
2023-04-26T06:00:20.501Z,3.50
2023-04-26T06:02:53.445Z,3.48
2023-04-26T06:05:26.081Z,3.41
2023-04-26T06:07:58.849Z,3.07
2023-04-26T06:10:31.934Z,3.24
2023-04-26T06:13:38.052Z,3.13
2023-04-26T06:16:11.987Z,3.22
2023-04-26T06:18:43.773Z,3.44
2023-04-26T06:21:15.555Z,3.41
2023-04-26T06:23:47.545Z,3.58
2023-04-26T06:26:22.510Z,3.59
2023-04-26T06:28:54.546Z,3.58
2023-04-26T06:31:30.162Z,3.46
2023-04-26T06:34:04.903Z,3.68
2023-04-26T06:36:37.155Z,3.61
2023-04-26T06:39:09.612Z,3.67
2023-04-26T06:41:43.684Z,3.68
2023-04-26T06:44:16.855Z,3.43
2023-04-26T06:46:49.782Z,3.67
2023-04-26T06:49:25.350Z,3.76
2023-04-26T06:51:58.937Z,3.78
2023-04-26T06:54:37.824Z,4.36
2023-04-26T06:57:13.935Z,3.94
2023-04-26T06:59:45.999Z,3.94
2023-04-26T07:02:19.466Z,3.85
2023-04-26T07:04:53.793Z,4.27
2023-04-26T07:07:26.518Z,3.99
2023-04-26T07:09:58.443Z,4.37
2023-04-26T07:12:30.859Z,4.32
2023-04-26T07:15:04.081Z,4.24
2023-04-26T07:17:36.602Z,4.53
2023-04-26T07:20:09.832Z,4.70
2023-04-26T07:22:42.910Z,4.61
2023-04-26T07:25:15.264Z,4.64
2023-04-26T07:27:47.534Z,4.32
2023-04-26T07:30:20.692Z,4.27
2023-04-26T07:32:52.408Z,4.15
2023-04-26T07:35:24.170Z,4.15
2023-04-26T07:37:55.760Z,4.10
2023-04-26T07:40:27.429Z,4.12
2023-04-26T07:42:59.043Z,4.27
2023-04-26T07:45:32.402Z,4.52
2023-04-26T07:48:04.441Z,4.45
2023-04-26T07:50:36.072Z,4.09
2023-04-26T07:53:07.631Z,4.24
2023-04-26T07:55:39.180Z,4.46
2023-04-26T07:58:10.768Z,4.34
2023-04-26T08:00:42.523Z,4.36
2023-04-26T08:03:17.513Z,4.56
2023-04-26T08:05:49.603Z,4.71
2023-04-26T08:08:22.626Z,4.10
2023-04-26T08:10:55.133Z,4.39
2023-04-26T08:13:29.138Z,4.34
2023-04-26T08:16:01.331Z,4.13
2023-04-26T08:18:33.084Z,4.21
2023-04-26T08:21:04.916Z,4.60
2023-04-26T08:23:37.017Z,4.64
2023-04-26T08:26:08.780Z,4.92
2023-04-26T08:28:41.332Z,4.76
2023-04-26T08:31:13.864Z,4.83
2023-04-26T08:33:46.827Z,4.67
2023-04-26T08:36:18.495Z,4.94
2023-04-26T08:38:50.281Z,5.01
2023-04-26T08:41:23.135Z,5.03
2023-04-26T08:43:55.407Z,4.60
2023-04-26T08:46:34.158Z,5.10
2023-04-26T08:49:22.514Z,4.72
2023-04-26T08:51:57.785Z,5.07
2023-04-26T08:54:30.500Z,4.81
2023-04-26T08:57:03.934Z,4.70
2023-04-26T08:59:39.723Z,4.68
2023-04-26T09:02:18.213Z,4.68
2023-04-26T09:04:51.448Z,4.52
2023-04-26T09:07:41.161Z,4.63
2023-04-26T09:10:18.807Z,4.85
2023-04-26T09:12:53.769Z,4.88
2023-04-26T09:15:27.085Z,4.85
2023-04-26T09:18:19.728Z,4.40
2023-04-26T09:21:10.514Z,4.51
2023-04-26T09:24:00.180Z,4.42
2023-04-26T09:26:32.782Z,4.51
2023-04-26T09:29:12.368Z,5.09
2023-04-26T09:31:49.802Z,4.69
2023-04-26T09:34:22.532Z,4.59
2023-04-26T09:36:56.529Z,4.43
2023-04-26T09:39:40.973Z,4.37
2023-04-26T09:42:17.270Z,4.34
2023-04-26T09:44:49.319Z,4.35
2023-04-26T09:47:22.024Z,4.30
2023-04-26T09:49:53.963Z,4.29
2023-04-26T09:52:26.247Z,4.01
2023-04-26T09:54:58.300Z,3.96
2023-04-26T09:57:30.609Z,3.95
2023-04-26T10:00:07.172Z,4.46
2023-04-26T10:02:39.056Z,4.25
2023-04-26T10:05:10.997Z,4.51
2023-04-26T10:07:42.920Z,4.77
2023-04-26T10:10:14.987Z,4.48
2023-04-26T10:12:47.463Z,4.41
2023-04-26T10:15:19.274Z,4.68
2023-04-26T10:17:52.201Z,4.78
2023-04-26T10:20:28.400Z,4.85
2023-04-26T10:23:03.729Z,4.50
2023-04-26T10:25:40.145Z,5.28
2023-04-26T10:28:11.858Z,4.45
2023-04-26T10:31:00.269Z,4.25
2023-04-26T10:33:32.196Z,4.16
2023-04-26T10:36:08.185Z,4.48
2023-04-26T10:39:01.988Z,4.42
2023-04-26T10:41:36.503Z,4.37
2023-04-26T10:44:39.585Z,4.83
2023-04-26T10:47:25.623Z,4.71
2023-04-26T10:50:06.818Z,4.98
2023-04-26T10:53:04.181Z,4.67
2023-04-26T10:55:43.173Z,4.62
2023-04-26T10:58:27.326Z,4.63
2023-04-26T11:01:16.915Z,3.50
2023-04-26T11:03:58.971Z,3.97
2023-04-26T11:06:53.977Z,3.67
2023-04-26T11:09:49.181Z,3.43
2023-04-26T11:12:22.341Z,3.34
2023-04-26T11:14:53.964Z,3.22
2023-04-26T11:17:25.838Z,2.97
2023-04-26T11:19:57.562Z,3.16
2023-04-26T11:22:29.408Z,2.91
2023-04-26T11:25:01.274Z,3.23
2023-04-26T11:27:33.450Z,3.21
2023-04-26T11:30:06.546Z,3.12
2023-04-26T11:32:38.551Z,2.96
2023-04-26T11:35:14.691Z,3.04
2023-04-26T11:37:46.539Z,2.90
2023-04-26T11:40:21.382Z,3.29
2023-04-26T11:42:53.567Z,2.84
2023-04-26T11:45:26.523Z,2.47
2023-04-26T11:48:01.750Z,2.30
2023-04-26T11:50:38.087Z,2.33
2023-04-26T11:53:11.192Z,2.42
2023-04-26T11:55:45.015Z,2.55
2023-04-26T11:58:17.976Z,2.63
2023-04-26T12:01:01.142Z,2.24
2023-04-26T12:03:35.633Z,2.30
2023-04-26T12:06:07.889Z,2.30
2023-04-26T12:08:42.206Z,2.24
2023-04-26T12:11:16.637Z,2.06
2023-04-26T12:13:48.806Z,2.15
2023-04-26T12:16:26.814Z,2.34
2023-04-26T12:18:59.753Z,2.42
2023-04-26T12:21:40.722Z,2.48
2023-04-26T12:24:28.958Z,2.10
2023-04-26T12:27:02.542Z,2.08
2023-04-26T12:29:35.757Z,2.16
2023-04-26T12:32:07.482Z,2.43
2023-04-26T12:34:39.230Z,2.41
2023-04-26T12:37:10.791Z,2.33
2023-04-26T12:39:42.530Z,2.52
2023-04-26T12:42:14.115Z,2.37
2023-04-26T12:44:45.783Z,2.36
2023-04-26T12:47:17.421Z,2.46
2023-04-26T12:49:49.075Z,2.22
2023-04-26T12:52:20.805Z,2.44
2023-04-26T12:54:52.520Z,2.31
2023-04-26T12:57:24.400Z,2.08
2023-04-26T12:59:56.250Z,2.33
2023-04-26T13:02:28.246Z,2.49
2023-04-26T13:05:03.876Z,2.29
2023-04-26T13:07:37.771Z,2.18
2023-04-26T13:10:12.066Z,2.02
2023-04-26T13:12:45.006Z,2.11
2023-04-26T13:15:17.743Z,2.28
2023-04-26T13:17:49.808Z,2.08
2023-04-26T13:20:23.203Z,2.18
2023-04-26T13:22:57.040Z,2.05
2023-04-26T13:25:28.775Z,2.30
2023-04-26T13:28:00.534Z,2.13
2023-04-26T13:30:32.422Z,2.18
2023-04-26T13:33:04.301Z,1.95
2023-04-26T13:35:36.279Z,2.29
2023-04-26T13:38:08.029Z,2.10
2023-04-26T13:40:40.171Z,2.32
2023-04-26T13:43:12.015Z,1.98
2023-04-26T13:45:44.224Z,2.26
2023-04-26T13:48:16.360Z,2.26
2023-04-26T13:50:48.336Z,2.22
2023-04-26T13:53:20.592Z,2.26
2023-04-26T13:55:52.545Z,2.08
2023-04-26T13:58:24.443Z,2.09
2023-04-26T14:00:56.787Z,1.98
2023-04-26T14:03:30.167Z,2.04
2023-04-26T14:06:02.939Z,2.18
2023-04-26T14:08:34.863Z,2.23
2023-04-26T14:11:06.869Z,2.41
2023-04-26T14:13:38.865Z,2.50
2023-04-26T14:16:12.481Z,2.12
2023-04-26T14:18:44.362Z,2.27
2023-04-26T14:21:16.440Z,2.27
2023-04-26T14:23:48.201Z,2.20
2023-04-26T14:26:20.359Z,2.18
2023-04-26T14:28:53.151Z,2.01
2023-04-26T14:31:25.198Z,2.26
2023-04-26T14:33:57.579Z,2.14
2023-04-26T14:36:30.770Z,2.40
2023-04-26T14:39:03.612Z,2.28
2023-04-26T14:41:35.485Z,2.04
2023-04-26T14:44:09.717Z,1.94
2023-04-26T14:46:42.973Z,2.02
2023-04-26T14:49:15.353Z,1.87
2023-04-26T14:51:47.760Z,2.18
2023-04-26T14:54:20.494Z,2.03
2023-04-26T14:56:52.540Z,2.09
2023-04-26T14:59:24.147Z,2.04
2023-04-26T15:01:55.843Z,1.89
2023-04-26T15:04:27.896Z,1.83
2023-04-26T15:06:59.694Z,1.84
2023-04-26T15:09:31.328Z,2.02
2023-04-26T15:12:03.186Z,2.06
2023-04-26T15:14:34.827Z,2.54
2023-04-26T15:17:06.690Z,2.10
2023-04-26T15:19:38.354Z,2.07
2023-04-26T15:22:10.152Z,2.22
2023-04-26T15:24:41.973Z,2.25
2023-04-26T15:27:13.720Z,2.44
2023-04-26T15:29:45.500Z,2.58
2023-04-26T15:32:17.806Z,2.60
2023-04-26T15:34:49.484Z,2.85
2023-04-26T15:37:21.205Z,2.38
2023-04-26T15:39:53.001Z,2.46
2023-04-26T15:42:24.995Z,2.57
2023-04-26T15:44:59.532Z,2.36
2023-04-26T15:47:31.585Z,2.63
2023-04-26T15:50:07.056Z,2.53
2023-04-26T15:52:39.816Z,2.58
2023-04-26T15:55:11.795Z,2.41
2023-04-26T15:57:43.673Z,2.31
2023-04-26T16:00:16.027Z,2.26
2023-04-26T16:02:48.157Z,2.49
2023-04-26T16:05:20.326Z,2.28
2023-04-26T16:07:52.871Z,2.52
2023-04-26T16:10:25.427Z,2.38
2023-04-26T16:12:57.545Z,2.57
2023-04-26T16:15:29.525Z,2.55
2023-04-26T16:18:01.341Z,3.22
2023-04-26T16:20:33.401Z,2.60
2023-04-26T16:23:05.709Z,2.45
2023-04-26T16:25:38.185Z,2.49
2023-04-26T16:28:11.909Z,2.24
2023-04-26T16:30:43.873Z,2.37
2023-04-26T16:33:16.114Z,2.21
2023-04-26T16:35:52.081Z,2.48
2023-04-26T16:38:24.059Z,2.44
2023-04-26T16:40:58.200Z,2.36
2023-04-26T16:43:32.160Z,2.29
2023-04-26T16:46:06.352Z,2.03
2023-04-26T16:48:39.076Z,2.12
2023-04-26T16:51:12.053Z,2.11
2023-04-26T16:53:43.979Z,2.13
2023-04-26T16:56:16.148Z,2.19
2023-04-26T16:58:49.108Z,1.92
2023-04-26T17:01:21.689Z,2.10
2023-04-26T17:03:54.378Z,2.11
2023-04-26T17:06:26.654Z,2.34
2023-04-26T17:08:58.694Z,2.13
2023-04-26T17:11:31.625Z,2.02
2023-04-26T17:14:04.625Z,2.04
2023-04-26T17:19:09.508Z,2.11
2023-04-26T17:21:41.282Z,2.37
2023-04-26T17:24:13.059Z,2.08
2023-04-26T17:26:44.709Z,2.04
2023-04-26T17:29:16.266Z,2.07
2023-04-26T17:31:48.112Z,1.87
2023-04-26T17:34:19.777Z,1.93
2023-04-26T17:36:51.444Z,1.79
2023-04-26T17:39:23.146Z,1.85
2023-04-26T17:41:54.700Z,1.94
2023-04-26T17:44:26.285Z,1.91
2023-04-26T17:46:57.932Z,2.04
2023-04-26T17:49:29.742Z,2.30
2023-04-26T17:52:01.469Z,2.09
2023-04-26T17:54:33.116Z,1.96
2023-04-26T17:57:04.727Z,2.24
2023-04-26T17:59:36.509Z,2.12
2023-04-26T18:02:08.345Z,2.29
2023-04-26T18:04:40.629Z,2.07
2023-04-26T18:07:13.803Z,2.21
2023-04-26T18:09:45.462Z,2.32
2023-04-26T18:12:17.221Z,2.59
2023-04-26T18:14:49.076Z,2.30
2023-04-26T18:17:21.197Z,2.65
2023-04-26T18:19:52.914Z,2.58
2023-04-26T18:22:24.900Z,2.29
2023-04-26T18:24:56.595Z,2.44
2023-04-26T18:27:28.424Z,2.67
2023-04-26T18:30:00.330Z,2.70
2023-04-26T18:32:33.048Z,2.43
2023-04-26T18:35:05.326Z,2.39
2023-04-26T18:37:37.447Z,2.48
2023-04-26T18:40:09.935Z,2.44
2023-04-26T18:42:41.719Z,2.53
2023-04-26T18:45:13.975Z,2.41
2023-04-26T18:47:45.863Z,2.47
2023-04-26T18:50:17.955Z,2.33
2023-04-26T18:52:50.821Z,2.57
2023-04-26T18:55:23.266Z,2.64
2023-04-26T18:57:55.392Z,2.48
2023-04-26T19:00:28.083Z,2.71
2023-04-26T19:03:00.455Z,2.37
2023-04-26T19:05:33.773Z,2.48
2023-04-26T19:08:06.334Z,2.37
2023-04-26T19:10:39.703Z,2.22
2023-04-26T19:13:13.328Z,3.35
2023-04-26T19:15:45.281Z,2.64
2023-04-26T19:18:17.373Z,2.51
2023-04-26T19:20:49.319Z,2.66
2023-04-26T19:23:22.562Z,2.84
2023-04-26T19:25:54.570Z,3.34
2023-04-26T19:28:26.456Z,3.36
2023-04-26T19:30:59.574Z,2.99
2023-04-26T19:33:32.458Z,2.93
2023-04-26T19:36:04.464Z,3.05
2023-04-26T19:38:37.074Z,4.20
2023-04-26T19:41:09.411Z,3.58
2023-04-26T19:43:41.629Z,3.34
2023-04-26T19:46:14.465Z,3.00
2023-04-26T19:48:46.184Z,2.83
2023-04-26T19:51:18.574Z,2.70
2023-04-26T19:53:50.220Z,3.14
2023-04-26T19:56:22.057Z,3.27
2023-04-26T19:58:53.600Z,3.26
2023-04-26T20:01:25.348Z,3.43
2023-04-26T20:03:57.092Z,3.01
2023-04-26T20:06:28.697Z,3.24
2023-04-26T20:09:00.294Z,3.21
2023-04-26T20:11:32.186Z,3.23
2023-04-26T20:14:03.927Z,3.46
2023-04-26T20:16:35.845Z,3.32
2023-04-26T20:19:07.778Z,3.36
2023-04-26T20:21:39.616Z,3.41
2023-04-26T20:24:11.249Z,3.52
2023-04-26T20:26:42.935Z,3.43
2023-04-26T20:29:14.798Z,3.54
2023-04-26T20:31:46.561Z,3.28
2023-04-26T20:34:18.455Z,3.32
2023-04-26T20:36:50.192Z,3.56
2023-04-26T20:39:22.814Z,3.22
2023-04-26T20:41:54.474Z,3.14
2023-04-26T20:44:26.385Z,3.13
2023-04-26T20:46:58.121Z,3.17
2023-04-26T20:49:30.295Z,3.37
2023-04-26T20:52:02.067Z,3.41
2023-04-26T20:54:34.149Z,4.09
2023-04-26T20:57:05.924Z,3.64
2023-04-26T20:59:38.234Z,3.38
2023-04-26T21:02:09.916Z,3.26
2023-04-26T21:04:42.435Z,3.03
2023-04-26T21:07:14.571Z,3.16
2023-04-26T21:09:46.410Z,3.22
2023-04-26T21:12:18.502Z,3.09
2023-04-26T21:14:52.807Z,3.14
2023-04-26T21:17:24.922Z,2.98
2023-04-26T21:19:57.185Z,3.09
2023-04-26T21:22:29.727Z,2.78
2023-04-26T21:25:03.378Z,2.94
2023-04-26T21:27:35.822Z,2.81
2023-04-26T21:30:09.127Z,2.89
2023-04-26T21:32:43.602Z,2.91
2023-04-26T21:35:16.438Z,3.19
2023-04-26T21:37:49.232Z,3.50
2023-04-26T21:40:22.942Z,3.56
2023-04-26T21:43:04.486Z,3.59
2023-04-26T21:45:37.433Z,3.40
2023-04-26T21:48:10.173Z,3.48
2023-04-26T21:50:42.493Z,3.34
2023-04-26T21:53:14.786Z,3.28
2023-04-26T21:55:53.990Z,3.31
2023-04-26T21:58:26.055Z,3.47
2023-04-26T22:01:14.036Z,3.50
2023-04-26T22:03:46.211Z,3.64
2023-04-26T22:06:18.464Z,3.31
2023-04-26T22:08:50.785Z,3.25
2023-04-26T22:11:23.129Z,3.16
2023-04-26T22:13:55.099Z,3.53
2023-04-26T22:16:26.785Z,3.42
2023-04-26T22:18:58.428Z,2.95
2023-04-26T22:21:30.127Z,3.20
2023-04-26T22:24:01.739Z,3.32
2023-04-26T22:26:33.356Z,3.37
2023-04-26T22:29:05.068Z,3.01
2023-04-26T22:31:36.752Z,3.29
2023-04-26T22:34:08.520Z,3.28
2023-04-26T22:36:40.250Z,3.20
2023-04-26T22:39:12.211Z,3.09
2023-04-26T22:41:44.213Z,3.13
2023-04-26T22:44:16.017Z,3.14
2023-04-26T22:46:47.631Z,3.05
2023-04-26T22:49:19.678Z,3.00
2023-04-26T22:52:04.359Z,3.00
2023-04-26T22:54:39.540Z,2.93
2023-04-26T22:57:11.271Z,3.28
2023-04-26T22:59:43.081Z,3.22
2023-04-26T23:02:14.814Z,3.06
2023-04-26T23:04:46.612Z,3.13
2023-04-26T23:07:18.718Z,3.14
2023-04-26T23:09:50.807Z,3.01
2023-04-26T23:12:22.642Z,2.88
2023-04-26T23:14:58.220Z,2.85
2023-04-26T23:17:30.098Z,2.98
2023-04-26T23:20:01.869Z,2.98
2023-04-26T23:22:34.007Z,3.15
2023-04-26T23:25:06.245Z,2.90
2023-04-26T23:27:38.236Z,2.94
2023-04-26T23:30:10.658Z,3.07
2023-04-26T23:32:42.604Z,2.88
2023-04-26T23:35:14.824Z,2.94
2023-04-26T23:37:46.538Z,3.15
2023-04-26T23:40:18.895Z,3.32
2023-04-26T23:42:51.967Z,3.27
2023-04-26T23:45:23.918Z,3.19
2023-04-26T23:47:56.025Z,3.58
2023-04-26T23:50:29.680Z,3.69
2023-04-26T23:53:03.149Z,3.94
2023-04-26T23:55:35.902Z,3.84
2023-04-26T23:58:09.146Z,3.64
